createdAt,value
2022-12-22T00:00:31.500Z,7.15
2022-12-22T00:01:31.502Z,7.24
2022-12-22T00:02:31.745Z,7.21
2022-12-22T00:03:31.597Z,7.21
2022-12-22T00:04:31.458Z,7.21
2022-12-22T00:05:31.472Z,7.16
2022-12-22T00:06:31.448Z,7.11
2022-12-22T00:07:31.455Z,7.21
2022-12-22T00:08:31.412Z,7.24
2022-12-22T00:09:31.402Z,7.15
2022-12-22T00:10:31.407Z,7.18
2022-12-22T00:11:31.370Z,7.08
2022-12-22T00:12:31.360Z,7.08
2022-12-22T00:13:31.345Z,7.19
2022-12-22T00:14:31.350Z,7.16
2022-12-22T00:15:31.347Z,7.19
2022-12-22T00:16:31.337Z,7.15
2022-12-22T00:17:31.305Z,7.15
2022-12-22T00:18:31.293Z,7.11
2022-12-22T00:19:31.284Z,7.15
2022-12-22T00:20:31.295Z,7.18
2022-12-22T00:21:31.256Z,7.16
2022-12-22T00:22:31.267Z,7.07
2022-12-22T00:23:31.254Z,7.11
2022-12-22T00:24:31.226Z,7.16
2022-12-22T00:25:31.224Z,7.07
2022-12-22T00:26:31.226Z,7.03
2022-12-22T00:27:31.191Z,7.06
2022-12-22T00:28:31.181Z,7.10
2022-12-22T00:29:31.182Z,7.18
2022-12-22T00:30:31.232Z,7.01
2022-12-22T00:31:31.167Z,7.04
2022-12-22T00:32:31.165Z,7.01
2022-12-22T00:33:31.126Z,7.06
2022-12-22T00:34:32.728Z,7.01
2022-12-22T00:35:31.109Z,7.06
2022-12-22T00:36:31.099Z,7.06
2022-12-22T00:37:31.109Z,7.06
2022-12-22T00:38:31.078Z,7.04
2022-12-22T00:39:31.091Z,7.08
2022-12-22T00:40:31.068Z,7.10
2022-12-22T00:41:31.067Z,7.04
2022-12-22T00:42:31.069Z,7.01
2022-12-22T00:43:31.027Z,7.06
2022-12-22T00:44:31.054Z,6.99
2022-12-22T00:45:31.126Z,7.04
2022-12-22T00:46:31.112Z,7.07
2022-12-22T00:47:30.977Z,7.04
2022-12-22T00:48:30.996Z,7.04
2022-12-22T00:49:30.986Z,7.07
2022-12-22T00:50:30.962Z,6.93
2022-12-22T00:51:30.956Z,7.00
2022-12-22T00:52:30.936Z,7.03
2022-12-22T00:53:30.939Z,7.03
2022-12-22T00:54:30.910Z,7.01
2022-12-22T00:55:30.914Z,6.93
2022-12-22T00:56:30.887Z,7.03
2022-12-22T00:57:30.882Z,6.91
2022-12-22T00:58:30.906Z,6.99
2022-12-22T00:59:30.862Z,7.08
2022-12-22T01:00:30.865Z,7.03
2022-12-22T01:01:30.960Z,7.04
2022-12-22T01:02:31.036Z,7.00
2022-12-22T01:03:30.859Z,7.06
2022-12-22T01:04:30.792Z,6.96
2022-12-22T01:05:30.832Z,7.06
2022-12-22T01:06:30.773Z,7.06
2022-12-22T01:07:30.758Z,7.01
2022-12-22T01:08:30.775Z,7.01
2022-12-22T01:09:30.739Z,6.99
2022-12-22T01:10:30.729Z,7.06
2022-12-22T01:11:30.755Z,6.93
2022-12-22T01:12:30.707Z,7.03
2022-12-22T01:13:30.696Z,7.01
2022-12-22T01:14:30.707Z,7.01
2022-12-22T01:15:30.775Z,7.00
2022-12-22T01:16:30.792Z,7.01
2022-12-22T01:17:30.651Z,7.06
2022-12-22T01:18:30.677Z,6.99
2022-12-22T01:19:30.653Z,6.96
2022-12-22T01:20:30.633Z,7.00
2022-12-22T01:21:30.611Z,7.01
2022-12-22T01:22:30.598Z,7.10
2022-12-22T01:23:30.587Z,7.03
2022-12-22T01:24:30.623Z,6.92
2022-12-22T01:25:30.578Z,7.04
2022-12-22T01:26:30.560Z,7.01
2022-12-22T01:27:30.603Z,7.01
2022-12-22T01:28:30.535Z,7.07
2022-12-22T01:29:30.543Z,7.04
2022-12-22T01:30:30.588Z,7.06
2022-12-22T01:31:30.504Z,7.03
2022-12-22T01:32:30.510Z,7.03
2022-12-22T01:33:30.488Z,6.93
2022-12-22T01:34:30.494Z,7.07
2022-12-22T01:35:30.485Z,7.01
2022-12-22T01:36:30.459Z,7.04
2022-12-22T01:37:30.467Z,7.06
2022-12-22T01:38:30.440Z,7.03
2022-12-22T01:39:30.455Z,7.15
2022-12-22T01:40:30.432Z,7.06
2022-12-22T01:41:30.387Z,7.19
2022-12-22T01:42:30.444Z,7.04
2022-12-22T01:43:30.389Z,7.13
2022-12-22T01:44:30.358Z,7.15
2022-12-22T01:45:30.359Z,7.16
2022-12-22T01:46:30.412Z,7.13
2022-12-22T01:47:30.355Z,7.16
2022-12-22T01:48:30.318Z,7.10
2022-12-22T01:49:30.317Z,7.11
2022-12-22T01:50:30.317Z,7.06
2022-12-22T01:51:30.307Z,7.19
2022-12-22T01:52:30.274Z,7.19
2022-12-22T01:53:30.283Z,7.19
2022-12-22T01:54:30.247Z,7.21
2022-12-22T01:55:30.249Z,7.16
2022-12-22T01:56:30.257Z,7.11
2022-12-22T01:57:30.219Z,7.16
2022-12-22T01:58:30.208Z,7.21
2022-12-22T01:59:30.319Z,7.25
2022-12-22T02:00:30.191Z,7.11
2022-12-22T02:01:30.326Z,7.18
2022-12-22T02:02:30.334Z,7.16
2022-12-22T02:03:30.218Z,7.18
2022-12-22T02:04:30.147Z,7.26
2022-12-22T02:05:30.126Z,7.22
2022-12-22T02:06:30.147Z,7.16
2022-12-22T02:07:30.135Z,7.19
2022-12-22T02:08:30.104Z,7.19
2022-12-22T02:09:30.089Z,7.19
2022-12-22T02:10:30.079Z,7.18
2022-12-22T02:11:30.070Z,7.19
2022-12-22T02:12:30.061Z,7.21
2022-12-22T02:13:30.097Z,7.18
2022-12-22T02:14:30.639Z,7.25
2022-12-22T02:15:30.058Z,7.24
2022-12-22T02:16:30.094Z,7.26
2022-12-22T02:17:30.007Z,7.18
2022-12-22T02:18:30.015Z,7.18
2022-12-22T02:19:29.985Z,7.21
2022-12-22T02:20:29.977Z,7.15
2022-12-22T02:21:29.956Z,7.29
2022-12-22T02:22:29.975Z,7.29
2022-12-22T02:23:29.938Z,7.31
2022-12-22T02:24:29.933Z,7.18
2022-12-22T02:25:29.939Z,7.25
2022-12-22T02:26:29.909Z,7.28
2022-12-22T02:27:29.924Z,7.26
2022-12-22T02:28:29.909Z,7.24
2022-12-22T02:29:29.873Z,7.22
2022-12-22T02:30:29.900Z,7.33
2022-12-22T02:31:29.920Z,7.33
2022-12-22T02:32:29.850Z,7.33
2022-12-22T02:33:29.849Z,7.22
2022-12-22T02:34:29.819Z,7.29
2022-12-22T02:35:29.808Z,7.24
2022-12-22T02:36:29.824Z,7.29
2022-12-22T02:37:29.793Z,7.37
2022-12-22T02:38:29.776Z,7.34
2022-12-22T02:39:29.783Z,7.25
2022-12-22T02:40:29.756Z,7.28
2022-12-22T02:41:29.761Z,7.33
2022-12-22T02:42:29.742Z,7.25
2022-12-22T02:43:29.726Z,7.39
2022-12-22T02:44:29.733Z,7.31
2022-12-22T02:45:29.698Z,7.33
2022-12-22T02:46:29.813Z,7.33
2022-12-22T02:47:29.698Z,7.33
2022-12-22T02:48:29.677Z,7.31
2022-12-22T02:49:29.678Z,7.31
2022-12-22T02:50:29.651Z,7.42
2022-12-22T02:51:29.636Z,7.39
2022-12-22T02:52:29.633Z,7.34
2022-12-22T02:53:29.613Z,7.39
2022-12-22T02:54:29.633Z,7.42
2022-12-22T02:55:29.592Z,7.39
2022-12-22T02:56:29.591Z,7.40
2022-12-22T02:57:29.569Z,7.40
2022-12-22T02:58:29.563Z,7.40
2022-12-22T02:59:29.571Z,7.46
2022-12-22T03:00:29.538Z,7.43
2022-12-22T03:01:29.746Z,7.42
2022-12-22T03:02:29.839Z,7.44
2022-12-22T03:03:29.711Z,7.37
2022-12-22T03:04:29.521Z,7.42
2022-12-22T03:05:29.486Z,7.40
2022-12-22T03:06:29.478Z,7.37
2022-12-22T03:07:29.466Z,7.40
2022-12-22T03:08:29.452Z,7.42
2022-12-22T03:09:29.458Z,7.40
2022-12-22T03:10:29.432Z,7.46
2022-12-22T03:11:29.433Z,7.46
2022-12-22T03:12:29.429Z,7.42
2022-12-22T03:13:29.396Z,7.47
2022-12-22T03:14:29.414Z,7.54
2022-12-22T03:15:29.379Z,7.46
2022-12-22T03:16:29.445Z,7.54
2022-12-22T03:17:29.376Z,7.44
2022-12-22T03:18:29.347Z,7.52
2022-12-22T03:19:29.381Z,7.46
2022-12-22T03:20:29.323Z,7.47
2022-12-22T03:21:29.322Z,7.54
2022-12-22T03:22:29.306Z,7.52
2022-12-22T03:23:29.312Z,7.47
2022-12-22T03:24:29.309Z,7.52
2022-12-22T03:25:29.274Z,7.52
2022-12-22T03:26:29.265Z,7.43
2022-12-22T03:27:29.267Z,7.49
2022-12-22T03:28:29.248Z,7.55
2022-12-22T03:29:29.254Z,7.52
2022-12-22T03:30:29.222Z,7.46
2022-12-22T03:31:29.308Z,7.50
2022-12-22T03:32:29.231Z,7.60
2022-12-22T03:33:29.182Z,7.52
2022-12-22T03:34:29.199Z,7.46
2022-12-22T03:35:29.187Z,7.50
2022-12-22T03:36:29.157Z,7.55
2022-12-22T03:37:29.167Z,7.47
2022-12-22T03:38:29.153Z,7.54
2022-12-22T03:39:29.146Z,7.49
2022-12-22T03:40:29.118Z,7.52
2022-12-22T03:41:29.100Z,7.55
2022-12-22T03:42:29.093Z,7.58
2022-12-22T03:43:29.082Z,7.54
2022-12-22T03:44:29.094Z,7.55
2022-12-22T03:45:29.063Z,7.50
2022-12-22T03:46:29.195Z,7.58
2022-12-22T03:47:29.066Z,7.55
2022-12-22T03:48:29.024Z,7.49
2022-12-22T03:49:29.016Z,7.58
2022-12-22T03:50:29.043Z,7.61
2022-12-22T03:51:29.013Z,7.54
2022-12-22T03:52:28.979Z,7.52
2022-12-22T03:53:28.978Z,7.60
2022-12-22T03:54:28.972Z,7.62
2022-12-22T03:55:28.979Z,7.61
2022-12-22T03:56:28.935Z,7.58
2022-12-22T03:57:28.933Z,7.61
2022-12-22T03:58:28.914Z,7.58
2022-12-22T03:59:28.904Z,7.64
2022-12-22T04:00:28.911Z,7.52
2022-12-22T04:01:28.984Z,7.64
2022-12-22T04:02:28.924Z,7.68
2022-12-22T04:03:28.960Z,7.64
2022-12-22T04:04:28.850Z,7.57
2022-12-22T04:05:28.863Z,7.62
2022-12-22T04:06:28.827Z,7.60
2022-12-22T04:07:28.847Z,7.58
2022-12-22T04:08:28.804Z,7.64
2022-12-22T04:09:28.809Z,7.61
2022-12-22T04:10:28.817Z,7.60
2022-12-22T04:11:28.777Z,7.64
2022-12-22T04:12:28.763Z,7.68
2022-12-22T04:13:28.755Z,7.58
2022-12-22T04:14:33.862Z,7.66
2022-12-22T04:15:29.755Z,7.68
2022-12-22T04:16:28.809Z,7.66
2022-12-22T04:17:28.709Z,7.62
2022-12-22T04:18:28.696Z,7.66
2022-12-22T04:19:28.687Z,7.64
2022-12-22T04:20:28.710Z,7.62
2022-12-22T04:21:28.673Z,7.66
2022-12-22T04:22:28.653Z,7.64
2022-12-22T04:23:28.679Z,7.64
2022-12-22T04:24:28.639Z,7.71
2022-12-22T04:25:28.627Z,7.68
2022-12-22T04:26:28.634Z,7.64
2022-12-22T04:27:28.606Z,7.66
2022-12-22T04:28:28.608Z,7.68
2022-12-22T04:29:28.581Z,7.68
2022-12-22T04:30:28.591Z,7.64
2022-12-22T04:31:28.606Z,7.78
2022-12-22T04:32:28.557Z,7.71
2022-12-22T04:33:28.545Z,7.66
2022-12-22T04:34:28.522Z,7.64
2022-12-22T04:35:28.519Z,7.60
2022-12-22T04:36:28.523Z,7.76
2022-12-22T04:37:28.498Z,7.74
2022-12-22T04:38:28.493Z,7.69
2022-12-22T04:39:28.510Z,7.62
2022-12-22T04:40:28.465Z,7.68
2022-12-22T04:41:28.479Z,7.74
2022-12-22T04:42:28.442Z,7.80
2022-12-22T04:43:28.437Z,7.64
2022-12-22T04:44:28.413Z,7.74
2022-12-22T04:45:28.465Z,7.73
2022-12-22T04:46:28.484Z,7.71
2022-12-22T04:47:28.390Z,7.73
2022-12-22T04:48:28.375Z,7.71
2022-12-22T04:49:28.368Z,7.74
2022-12-22T04:50:28.386Z,7.73
2022-12-22T04:51:28.364Z,7.69
2022-12-22T04:52:28.342Z,7.76
2022-12-22T04:53:28.335Z,7.71
2022-12-22T04:54:28.313Z,7.76
2022-12-22T04:55:28.330Z,7.77
2022-12-22T04:56:28.309Z,7.64
2022-12-22T04:57:28.283Z,7.64
2022-12-22T04:58:28.264Z,7.76
2022-12-22T04:59:28.261Z,7.74
2022-12-22T05:00:28.262Z,7.66
2022-12-22T05:01:28.441Z,7.76
2022-12-22T05:02:28.290Z,7.76
2022-12-22T05:03:28.297Z,7.71
2022-12-22T05:04:28.201Z,7.69
2022-12-22T05:05:28.203Z,7.83
2022-12-22T05:06:28.233Z,7.76
2022-12-22T05:07:28.171Z,7.78
2022-12-22T05:08:28.160Z,7.76
2022-12-22T05:09:28.176Z,7.80
2022-12-22T05:10:28.155Z,7.80
2022-12-22T05:11:28.147Z,7.80
2022-12-22T05:12:28.141Z,7.76
2022-12-22T05:13:28.113Z,7.73
2022-12-22T05:14:28.095Z,7.80
2022-12-22T05:15:28.090Z,7.83
2022-12-22T05:16:28.123Z,7.80
2022-12-22T05:17:28.062Z,7.83
2022-12-22T05:18:28.048Z,7.78
2022-12-22T05:19:30.834Z,7.80
2022-12-22T05:20:28.994Z,7.80
2022-12-22T05:21:28.021Z,7.80
2022-12-22T05:22:28.005Z,7.76
2022-12-22T05:23:28.001Z,7.81
2022-12-22T05:24:27.986Z,7.81
2022-12-22T05:25:34.446Z,7.81
2022-12-22T05:26:28.967Z,7.88
2022-12-22T05:27:27.986Z,7.92
2022-12-22T05:28:27.947Z,7.83
2022-12-22T05:29:27.947Z,7.81
2022-12-22T05:30:28.011Z,7.76
2022-12-22T05:31:28.078Z,7.81
2022-12-22T05:32:27.899Z,7.78
2022-12-22T05:33:27.892Z,7.84
2022-12-22T05:34:27.876Z,7.77
2022-12-22T05:35:27.892Z,7.92
2022-12-22T05:36:27.863Z,7.86
2022-12-22T05:37:27.852Z,7.86
2022-12-22T05:38:27.861Z,7.88
2022-12-22T05:39:27.825Z,7.88
2022-12-22T05:40:27.848Z,7.88
2022-12-22T05:41:27.813Z,7.94
2022-12-22T05:42:27.809Z,7.77
2022-12-22T05:43:27.827Z,7.92
2022-12-22T05:44:27.770Z,7.86
2022-12-22T05:45:27.762Z,7.88
2022-12-22T05:46:27.865Z,7.87
2022-12-22T05:47:27.769Z,7.91
2022-12-22T05:48:33.711Z,7.87
2022-12-22T05:49:28.715Z,7.91
2022-12-22T05:50:27.727Z,7.92
2022-12-22T05:51:27.722Z,7.95
2022-12-22T05:52:27.691Z,7.88
2022-12-22T05:53:27.676Z,7.86
2022-12-22T05:54:27.664Z,7.88
2022-12-22T05:55:27.651Z,7.88
2022-12-22T05:56:27.660Z,7.84
2022-12-22T05:57:27.633Z,7.91
2022-12-22T05:58:27.615Z,7.95
2022-12-22T05:59:27.674Z,7.84
2022-12-22T06:00:27.609Z,7.87
2022-12-22T06:01:27.651Z,7.91
2022-12-22T06:02:27.774Z,7.94
2022-12-22T06:03:27.685Z,7.92
2022-12-22T06:04:27.669Z,7.88
2022-12-22T06:05:27.546Z,7.88
2022-12-22T06:06:27.561Z,7.94
2022-12-22T06:07:27.526Z,7.94
2022-12-22T06:08:27.521Z,7.86
2022-12-22T06:09:27.503Z,7.87
2022-12-22T06:10:27.494Z,7.92
2022-12-22T06:11:27.480Z,7.95
2022-12-22T06:12:27.486Z,7.91
2022-12-22T06:13:27.458Z,7.94
2022-12-22T06:14:27.444Z,7.95
2022-12-22T06:15:27.458Z,8.01
2022-12-22T06:16:27.472Z,7.99
2022-12-22T06:17:27.436Z,7.99
2022-12-22T06:18:27.426Z,7.98
2022-12-22T06:19:27.390Z,7.86
2022-12-22T06:20:27.381Z,8.01
2022-12-22T06:21:27.374Z,7.98
2022-12-22T06:22:27.363Z,7.99
2022-12-22T06:23:27.376Z,7.96
2022-12-22T06:24:27.336Z,8.01
2022-12-22T06:25:27.339Z,7.99
2022-12-22T06:26:27.314Z,7.94
2022-12-22T06:27:27.308Z,7.99
2022-12-22T06:28:27.327Z,7.98
2022-12-22T06:29:27.298Z,8.02
2022-12-22T06:30:32.885Z,7.96
2022-12-22T06:31:28.357Z,7.94
2022-12-22T06:32:27.250Z,8.05
2022-12-22T06:33:27.264Z,7.96
2022-12-22T06:34:27.226Z,7.92
2022-12-22T06:35:27.225Z,7.94
2022-12-22T06:36:27.205Z,7.96
2022-12-22T06:37:27.195Z,8.02
2022-12-22T06:38:27.209Z,7.95
2022-12-22T06:39:27.177Z,7.98
2022-12-22T06:40:27.162Z,7.96
2022-12-22T06:41:27.157Z,8.02
2022-12-22T06:42:27.164Z,7.95
2022-12-22T06:43:27.151Z,7.96
2022-12-22T06:44:27.133Z,8.05
2022-12-22T06:45:27.112Z,7.98
2022-12-22T06:46:27.115Z,8.04
2022-12-22T06:47:27.130Z,7.99
2022-12-22T06:48:27.084Z,7.96
2022-12-22T06:49:27.067Z,7.99
2022-12-22T06:50:27.072Z,8.01
2022-12-22T06:51:27.049Z,8.10
2022-12-22T06:52:27.030Z,8.05
2022-12-22T06:53:27.049Z,8.04
2022-12-22T06:54:27.016Z,7.96
2022-12-22T06:55:27.015Z,8.04
2022-12-22T06:56:26.986Z,8.04
2022-12-22T06:57:26.977Z,7.98
2022-12-22T06:58:27.010Z,7.98
2022-12-22T06:59:26.957Z,8.05
2022-12-22T07:00:26.949Z,8.06
2022-12-22T07:01:27.074Z,8.09
2022-12-22T07:02:27.166Z,8.01
2022-12-22T07:03:27.135Z,8.09
2022-12-22T07:04:26.905Z,8.12
2022-12-22T07:05:26.904Z,8.14
2022-12-22T07:06:26.908Z,8.09
2022-12-22T07:07:26.878Z,8.10
2022-12-22T07:08:26.858Z,8.09
2022-12-22T07:09:26.857Z,8.09
2022-12-22T07:10:26.839Z,8.06
2022-12-22T07:11:26.859Z,8.12
2022-12-22T07:12:26.814Z,8.06
2022-12-22T07:13:26.806Z,8.06
2022-12-22T07:14:26.813Z,8.16
2022-12-22T07:15:26.795Z,8.05
2022-12-22T07:16:26.870Z,8.06
2022-12-22T07:17:26.772Z,8.05
2022-12-22T07:18:26.752Z,8.12
2022-12-22T07:19:26.784Z,8.12
2022-12-22T07:20:26.726Z,8.17
2022-12-22T07:21:26.721Z,8.14
2022-12-22T07:22:30.278Z,8.12
2022-12-22T07:23:26.720Z,8.14
2022-12-22T07:24:26.730Z,8.12
2022-12-22T07:25:26.695Z,8.16
2022-12-22T07:26:26.695Z,8.16
2022-12-22T07:27:26.659Z,8.17
2022-12-22T07:28:26.696Z,8.13
2022-12-22T07:29:26.666Z,8.17
2022-12-22T07:30:26.619Z,8.14
2022-12-22T07:31:26.702Z,8.10
2022-12-22T07:32:26.632Z,8.13
2022-12-22T07:33:26.613Z,8.12
2022-12-22T07:34:26.620Z,8.14
2022-12-22T07:35:26.585Z,8.19
2022-12-22T07:36:26.557Z,8.14
2022-12-22T07:37:26.576Z,8.06
2022-12-22T07:38:26.535Z,8.12
2022-12-22T07:39:26.534Z,8.19
2022-12-22T07:40:26.567Z,8.10
2022-12-22T07:41:26.515Z,8.20
2022-12-22T07:42:26.487Z,8.21
2022-12-22T07:43:26.503Z,8.09
2022-12-22T07:44:26.471Z,8.19
2022-12-22T07:45:26.462Z,8.17
2022-12-22T07:46:26.564Z,8.14
2022-12-22T07:47:31.655Z,8.13
2022-12-22T07:48:27.436Z,8.20
2022-12-22T07:49:26.417Z,8.28
2022-12-22T07:50:26.471Z,8.19
2022-12-22T07:51:26.422Z,8.24
2022-12-22T07:52:26.378Z,8.14
2022-12-22T07:53:26.375Z,8.26
2022-12-22T07:54:26.382Z,8.20
2022-12-22T07:55:26.378Z,8.21
2022-12-22T07:56:26.335Z,8.21
2022-12-22T07:57:26.489Z,8.20
2022-12-22T07:58:26.314Z,8.20
2022-12-22T07:59:26.304Z,8.20
2022-12-22T08:00:26.397Z,8.17
2022-12-22T08:01:26.370Z,8.20
2022-12-22T08:02:26.405Z,8.24
2022-12-22T08:03:26.317Z,8.28
2022-12-22T08:04:26.276Z,8.28
2022-12-22T08:05:26.239Z,8.26
2022-12-22T08:06:26.253Z,8.24
2022-12-22T08:07:26.240Z,8.35
2022-12-22T08:08:26.212Z,8.24
2022-12-22T08:09:26.197Z,8.26
2022-12-22T08:10:26.309Z,8.38
2022-12-22T08:11:26.194Z,8.26
2022-12-22T08:12:26.168Z,8.31
2022-12-22T08:13:26.317Z,8.32
2022-12-22T08:14:26.142Z,8.28
2022-12-22T08:15:26.162Z,8.26
2022-12-22T08:16:26.157Z,8.35
2022-12-22T08:17:26.106Z,8.32
2022-12-22T08:18:26.098Z,8.34
2022-12-22T08:19:26.095Z,8.26
2022-12-22T08:20:26.109Z,8.37
2022-12-22T08:21:26.061Z,8.34
2022-12-22T08:22:26.054Z,8.31
2022-12-22T08:23:26.068Z,8.32
2022-12-22T08:24:26.036Z,8.26
2022-12-22T08:25:26.047Z,8.29
2022-12-22T08:26:26.041Z,8.35
2022-12-22T08:27:26.488Z,8.37
2022-12-22T08:28:25.998Z,8.35
2022-12-22T08:29:25.980Z,8.32
2022-12-22T08:30:25.991Z,8.32
2022-12-22T08:31:26.027Z,8.34
2022-12-22T08:32:25.974Z,8.37
2022-12-22T08:33:25.934Z,8.28
2022-12-22T08:34:25.930Z,8.34
2022-12-22T08:35:25.912Z,8.32
2022-12-22T08:36:25.917Z,8.29
2022-12-22T08:37:25.896Z,8.38
2022-12-22T08:38:25.912Z,8.41
2022-12-22T08:39:25.894Z,8.38
2022-12-22T08:40:25.858Z,8.42
2022-12-22T08:41:25.853Z,8.31
2022-12-22T08:42:25.840Z,8.39
2022-12-22T08:43:25.851Z,8.37
2022-12-22T08:44:25.822Z,8.38
2022-12-22T08:45:25.822Z,8.39
2022-12-22T08:46:25.816Z,8.38
2022-12-22T08:47:25.875Z,8.39
2022-12-22T08:48:25.803Z,8.44
2022-12-22T08:49:25.761Z,8.39
2022-12-22T08:50:25.748Z,8.44
2022-12-22T08:51:25.736Z,8.37
2022-12-22T08:52:25.726Z,8.49
2022-12-22T08:54:03.061Z,8.44
2022-12-22T08:54:26.716Z,8.50
2022-12-22T08:55:25.713Z,8.39
2022-12-22T08:56:25.685Z,8.41
2022-12-22T08:57:25.674Z,8.55
2022-12-22T08:58:25.690Z,8.42
2022-12-22T08:59:25.649Z,8.41
2022-12-22T09:00:25.649Z,8.42
2022-12-22T09:01:25.844Z,8.47
2022-12-22T09:02:25.758Z,8.53
2022-12-22T09:03:25.676Z,8.39
2022-12-22T09:04:25.648Z,8.49
2022-12-22T09:05:25.582Z,8.44
2022-12-22T09:06:27.551Z,8.46
2022-12-22T09:07:25.562Z,8.56
2022-12-22T09:08:25.586Z,8.49
2022-12-22T09:09:25.539Z,8.46
2022-12-22T09:10:25.535Z,8.56
2022-12-22T09:11:25.544Z,8.55
2022-12-22T09:12:25.529Z,8.50
2022-12-22T09:13:25.526Z,8.46
2022-12-22T09:14:25.497Z,8.52
2022-12-22T09:15:25.478Z,8.53
2022-12-22T09:16:25.520Z,8.47
2022-12-22T09:17:25.471Z,8.55
2022-12-22T09:18:25.452Z,8.60
2022-12-22T09:19:25.470Z,8.67
2022-12-22T09:20:25.422Z,8.60
2022-12-22T09:21:25.416Z,8.55
2022-12-22T09:22:27.969Z,8.60
2022-12-22T09:23:25.387Z,8.63
2022-12-22T09:24:25.398Z,8.56
2022-12-22T09:25:25.367Z,8.57
2022-12-22T09:26:25.354Z,8.56
2022-12-22T09:27:25.368Z,8.63
2022-12-22T09:28:25.343Z,8.59
2022-12-22T09:29:25.360Z,8.62
2022-12-22T09:30:25.318Z,8.65
2022-12-22T09:31:25.398Z,8.62
2022-12-22T09:32:25.292Z,8.65
2022-12-22T09:33:25.279Z,8.56
2022-12-22T09:34:25.311Z,8.70
2022-12-22T09:35:25.268Z,8.65
2022-12-22T09:36:25.251Z,8.57
2022-12-22T09:37:25.336Z,8.70
2022-12-22T09:38:25.229Z,8.72
2022-12-22T09:39:29.204Z,8.68
2022-12-22T09:40:25.223Z,8.65
2022-12-22T09:41:25.195Z,8.67
2022-12-22T09:42:25.185Z,8.77
2022-12-22T09:43:25.195Z,8.70
2022-12-22T09:44:25.159Z,8.70
2022-12-22T09:45:25.169Z,8.74
2022-12-22T09:46:25.203Z,8.77
2022-12-22T09:47:25.198Z,8.72
2022-12-22T09:48:25.122Z,8.74
2022-12-22T09:49:25.109Z,8.78
2022-12-22T09:50:25.120Z,8.74
2022-12-22T09:51:27.464Z,8.72
2022-12-22T09:52:25.077Z,8.78
2022-12-22T09:53:25.101Z,8.75
2022-12-22T09:54:25.058Z,8.81
2022-12-22T09:55:25.042Z,8.72
2022-12-22T09:56:25.034Z,8.72
2022-12-22T09:57:25.090Z,8.75
2022-12-22T09:58:26.668Z,8.78
2022-12-22T09:59:25.060Z,8.80
2022-12-22T10:00:25.002Z,8.77
2022-12-22T10:01:25.119Z,8.80
2022-12-22T10:02:25.073Z,8.86
2022-12-22T10:03:25.042Z,8.83
2022-12-22T10:04:24.967Z,8.75
2022-12-22T10:05:24.947Z,8.81
2022-12-22T10:06:24.929Z,8.81
2022-12-22T10:07:25.068Z,8.78
2022-12-22T10:08:24.931Z,8.81
2022-12-22T10:09:48.732Z,8.88
2022-12-22T10:10:25.889Z,8.88
2022-12-22T10:11:24.870Z,8.86
2022-12-22T10:12:24.879Z,8.86
2022-12-22T10:13:24.874Z,8.85
2022-12-22T10:14:24.853Z,8.83
2022-12-22T10:15:24.873Z,8.88
2022-12-22T10:16:24.870Z,8.88
2022-12-22T10:17:24.885Z,8.88
2022-12-22T10:18:24.816Z,8.95
2022-12-22T10:19:24.783Z,8.92
2022-12-22T10:20:24.776Z,8.86
2022-12-22T10:21:24.770Z,8.88
2022-12-22T10:22:24.763Z,8.89
2022-12-22T10:23:24.762Z,8.93
2022-12-22T10:24:24.735Z,8.93
2022-12-22T10:25:24.732Z,8.90
2022-12-22T10:26:29.811Z,8.93
2022-12-22T10:27:28.875Z,8.95
2022-12-22T10:28:24.726Z,8.90
2022-12-22T10:29:24.669Z,8.90
2022-12-22T10:30:24.662Z,8.86
2022-12-22T10:31:24.769Z,8.93
2022-12-22T10:32:24.708Z,8.89
2022-12-22T10:33:24.653Z,8.92
2022-12-22T10:34:24.618Z,8.98
2022-12-22T10:35:24.608Z,9.06
2022-12-22T10:36:24.606Z,8.88
2022-12-22T10:37:24.590Z,9.03
2022-12-22T10:38:24.614Z,9.03
2022-12-22T10:39:24.631Z,9.04
2022-12-22T10:40:24.566Z,8.95
2022-12-22T10:41:24.543Z,9.04
2022-12-22T10:42:24.531Z,8.95
2022-12-22T10:43:24.518Z,9.04
2022-12-22T10:44:24.578Z,9.08
2022-12-22T10:45:24.502Z,9.09
2022-12-22T10:46:24.520Z,9.03
2022-12-22T10:47:24.742Z,9.08
2022-12-22T10:48:24.474Z,9.08
2022-12-22T10:49:24.508Z,9.06
2022-12-22T10:50:24.478Z,9.08
2022-12-22T10:51:24.443Z,9.08
2022-12-22T10:52:30.064Z,9.08
2022-12-22T10:53:25.412Z,9.11
2022-12-22T10:54:24.434Z,9.09
2022-12-22T10:55:24.436Z,9.08
2022-12-22T10:56:24.389Z,9.11
2022-12-22T10:57:24.376Z,9.09
2022-12-22T10:58:24.362Z,9.06
2022-12-22T10:59:24.345Z,9.12
2022-12-22T11:00:24.361Z,9.11
2022-12-22T11:01:24.522Z,9.11
2022-12-22T11:02:24.558Z,9.12
2022-12-22T11:03:24.830Z,9.15
2022-12-22T11:04:24.306Z,9.09
2022-12-22T11:05:24.293Z,9.12
2022-12-22T11:06:24.281Z,9.11
2022-12-22T11:07:24.253Z,9.18
2022-12-22T11:08:24.253Z,9.16
2022-12-22T11:09:33.837Z,9.08
2022-12-22T11:10:25.224Z,9.18
2022-12-22T11:11:24.212Z,9.19
2022-12-22T11:12:24.204Z,9.19
2022-12-22T11:13:24.198Z,9.12
2022-12-22T11:14:24.205Z,9.18
2022-12-22T11:15:25.065Z,9.15
2022-12-22T11:16:24.220Z,9.16
2022-12-22T11:17:24.154Z,9.18
2022-12-22T11:18:24.140Z,9.22
2022-12-22T11:19:24.183Z,9.16
2022-12-22T11:20:24.142Z,9.22
2022-12-22T11:21:24.763Z,9.18
2022-12-22T11:22:24.102Z,9.16
2022-12-22T11:23:24.083Z,9.22
2022-12-22T11:24:24.080Z,9.24
2022-12-22T11:25:24.088Z,9.19
2022-12-22T11:26:24.050Z,9.27
2022-12-22T11:27:24.047Z,9.32
2022-12-22T11:28:24.030Z,9.19
2022-12-22T11:29:24.020Z,9.24
2022-12-22T11:30:24.036Z,9.33
2022-12-22T11:31:24.106Z,9.33
2022-12-22T11:32:23.988Z,9.32
2022-12-22T11:33:23.981Z,9.33
2022-12-22T11:34:23.976Z,9.26
2022-12-22T11:35:23.998Z,9.27
2022-12-22T11:36:23.995Z,9.19
2022-12-22T11:37:23.931Z,9.30
2022-12-22T11:38:23.919Z,9.27
2022-12-22T11:39:23.912Z,9.30
2022-12-22T11:40:23.900Z,9.30
2022-12-22T11:41:23.914Z,9.30
2022-12-22T11:42:23.912Z,9.27
2022-12-22T11:43:23.870Z,9.34
2022-12-22T11:44:23.862Z,9.29
2022-12-22T11:45:23.869Z,9.33
2022-12-22T11:46:24.021Z,9.36
2022-12-22T11:47:23.819Z,9.29
2022-12-22T11:48:23.813Z,9.32
2022-12-22T11:49:23.806Z,9.34
2022-12-22T11:50:59.425Z,9.40
2022-12-22T11:51:28.009Z,9.36
2022-12-22T11:52:23.777Z,9.37
2022-12-22T11:53:23.755Z,9.32
2022-12-22T11:54:23.776Z,9.30
2022-12-22T11:55:23.736Z,9.40
2022-12-22T11:56:23.741Z,9.37
2022-12-22T11:57:23.722Z,9.34
2022-12-22T11:58:23.720Z,9.34
2022-12-22T11:59:23.690Z,9.37
2022-12-22T12:00:32.783Z,9.34
2022-12-22T12:01:26.421Z,9.33
2022-12-22T12:02:23.839Z,9.44
2022-12-22T12:03:23.880Z,9.36
2022-12-22T12:04:23.758Z,9.42
2022-12-22T12:05:23.621Z,9.37
2022-12-22T12:06:23.633Z,9.44
2022-12-22T12:07:25.883Z,9.37
2022-12-22T12:08:23.622Z,9.36
2022-12-22T12:09:23.585Z,9.48
2022-12-22T12:10:23.576Z,9.45
2022-12-22T12:11:23.565Z,9.44
2022-12-22T12:12:23.563Z,9.40
2022-12-22T12:13:29.973Z,9.36
2022-12-22T12:14:24.565Z,9.40
2022-12-22T12:15:23.534Z,9.44
2022-12-22T12:16:23.708Z,9.50
2022-12-22T12:17:23.541Z,9.48
2022-12-22T12:18:23.486Z,9.47
2022-12-22T12:19:27.077Z,9.47
2022-12-22T12:20:24.479Z,9.45
2022-12-22T12:21:23.475Z,9.42
2022-12-22T12:22:23.444Z,9.47
2022-12-22T12:23:23.466Z,9.52
2022-12-22T12:24:23.442Z,9.42
2022-12-22T12:25:26.048Z,9.50
2022-12-22T12:26:23.402Z,9.48
2022-12-22T12:27:23.404Z,9.47
2022-12-22T12:28:23.389Z,9.48
2022-12-22T12:29:23.376Z,9.45
2022-12-22T12:30:39.598Z,9.42
2022-12-22T12:31:26.433Z,9.52
2022-12-22T12:32:23.342Z,9.42
2022-12-22T12:33:23.357Z,9.40
2022-12-22T12:34:23.316Z,9.47
2022-12-22T12:35:23.323Z,9.44
2022-12-22T12:36:23.294Z,9.51
2022-12-22T12:37:26.464Z,9.52
2022-12-22T12:39:05.105Z,9.52
2022-12-22T12:39:24.285Z,9.52
2022-12-22T12:40:23.253Z,9.50
2022-12-22T12:41:23.247Z,9.60
2022-12-22T12:42:23.228Z,9.55
2022-12-22T12:43:23.237Z,9.54
2022-12-22T12:44:23.205Z,9.59
2022-12-22T12:45:23.197Z,9.59
2022-12-22T12:46:23.255Z,9.54
2022-12-22T12:47:23.241Z,9.62
2022-12-22T12:48:23.167Z,9.62
2022-12-22T12:49:26.420Z,9.55
2022-12-22T12:50:23.147Z,9.63
2022-12-22T12:51:23.135Z,9.60
2022-12-22T12:52:23.134Z,9.55
2022-12-22T12:53:23.129Z,9.59
2022-12-22T12:54:23.123Z,9.59
2022-12-22T12:55:28.003Z,9.62
2022-12-22T12:56:24.096Z,9.60
2022-12-22T12:57:23.077Z,9.60
2022-12-22T12:58:23.054Z,9.60
2022-12-22T12:59:23.051Z,9.60
2022-12-22T13:00:23.033Z,9.54
2022-12-22T13:01:23.148Z,9.55
2022-12-22T13:02:23.233Z,9.63
2022-12-22T13:03:53.091Z,9.62
2022-12-22T13:04:24.228Z,9.60
2022-12-22T13:05:23.005Z,9.65
2022-12-22T13:06:22.972Z,9.57
2022-12-22T13:07:22.961Z,9.66
2022-12-22T13:08:22.949Z,9.59
2022-12-22T13:10:23.931Z,9.65
2022-12-22T13:12:01.197Z,9.65
2022-12-22T13:12:24.831Z,9.66
2022-12-22T13:13:22.928Z,9.63
2022-12-22T13:14:22.937Z,9.67
2022-12-22T13:15:22.950Z,9.63
2022-12-22T13:16:22.956Z,9.60
2022-12-22T13:17:22.931Z,9.66
2022-12-22T13:18:22.839Z,9.60
2022-12-22T13:19:22.842Z,9.59